Time;durP1;ratioP1;P1;durP2;ratioP2;P2;SDS_P1;SDS_P2;PMS_P1;PMS_P2;Temp;Humidity;BMP_temperature;BMP_pressure;BME280_temperature;BME280_humidity;BME280_pressure;Samples;Min_cycle;Max_cycle;Signal;HPM_P1;HPM_P2
2022/02/17 00:00:26;;;;;;;18.42;3.08;;;10.80;99.90;;;;;;5053862;28;20460;-54
2022/02/17 00:02:53;;;;;;;13.77;2.67;;;10.90;99.90;;;;;;5051926;28;20076;-57
2022/02/17 00:05:20;;;;;;;15.55;3.03;;;10.90;99.90;;;;;;5053162;28;20401;-57
2022/02/17 00:07:47;;;;;;;18.23;2.65;;;10.90;99.90;;;;;;5043148;28;20119;-57
2022/02/17 00:10:13;;;;;;;16.20;3.28;;;10.90;99.90;;;;;;5053171;28;20033;-58
2022/02/17 00:12:38;;;;;;;11.13;2.80;;;10.90;99.90;;;;;;5069028;28;20090;-57
2022/02/17 00:15:05;;;;;;;12.20;3.08;;;10.90;99.90;;;;;;5073190;28;20033;-58
2022/02/17 00:17:32;;;;;;;14.95;3.15;;;10.90;99.90;;;;;;5071652;28;20052;-58
2022/02/17 00:19:58;;;;;;;15.77;2.85;;;10.90;99.90;;;;;;5072826;28;20131;-58
2022/02/17 00:22:24;;;;;;;15.68;3.17;;;10.90;99.90;;;;;;5072840;28;20111;-58
2022/02/17 00:24:49;;;;;;;14.07;3.10;;;10.80;99.90;;;;;;5072655;28;20036;-57
2022/02/17 00:27:15;;;;;;;17.98;3.08;;;10.70;99.90;;;;;;5062881;28;20044;-57
2022/02/17 00:29:40;;;;;;;16.00;3.15;;;10.70;99.90;;;;;;5072463;28;20533;-57
2022/02/17 00:32:07;;;;;;;20.15;3.88;;;10.80;99.90;;;;;;5072621;28;20029;-56
2022/02/17 00:34:32;;;;;;;15.88;3.05;;;10.80;99.90;;;;;;5072685;28;20108;-57
2022/02/17 00:36:58;;;;;;;17.88;2.83;;;10.70;99.90;;;;;;5072403;28;20509;-58
2022/02/17 00:39:23;;;;;;;20.30;3.28;;;10.70;99.90;;;;;;5065214;28;20101;-57
2022/02/17 00:41:50;;;;;;;14.63;3.53;;;10.70;99.90;;;;;;5068577;28;20048;-57
2022/02/17 00:44:16;;;;;;;16.35;3.13;;;10.70;99.90;;;;;;5072571;28;20040;-57
2022/02/17 00:46:42;;;;;;;13.35;2.70;;;10.70;99.90;;;;;;5072071;28;20489;-58
2022/02/17 00:49:08;;;;;;;15.38;2.90;;;10.70;99.90;;;;;;5072406;28;20158;-58
2022/02/17 00:51:34;;;;;;;12.88;2.60;;;10.60;99.90;;;;;;5072308;28;20043;-57
2022/02/17 00:54:00;;;;;;;14.25;2.72;;;10.60;99.90;;;;;;5072125;28;20052;-57
2022/02/17 00:56:26;;;;;;;18.98;2.83;;;10.50;99.90;;;;;;5070431;28;20040;-58
2022/02/17 00:58:51;;;;;;;20.98;3.10;;;10.50;99.90;;;;;;5072203;28;20040;-58
2022/02/17 01:01:17;;;;;;;12.05;2.40;;;10.40;99.90;;;;;;5072030;28;20404;-56
2022/02/17 01:03:42;;;;;;;17.75;2.88;;;10.40;99.90;;;;;;5058008;28;20048;-58
2022/02/17 01:06:08;;;;;;;11.50;2.78;;;10.40;99.90;;;;;;5063382;28;20501;-58
2022/02/17 01:08:35;;;;;;;23.30;3.22;;;10.30;99.90;;;;;;5071084;28;20115;-57
2022/02/17 01:11:00;;;;;;;19.65;3.22;;;10.30;99.90;;;;;;5069019;28;20464;-58
2022/02/17 01:13:27;;;;;;;20.92;4.05;;;10.30;99.90;;;;;;5071963;28;20043;-57
2022/02/17 01:15:52;;;;;;;20.20;3.10;;;10.30;99.90;;;;;;5071873;28;20094;-56
2022/02/17 01:18:18;;;;;;;22.35;4.18;;;10.30;99.90;;;;;;5063499;28;20033;-58
2022/02/17 01:20:46;;;;;;;17.95;3.22;;;10.40;99.90;;;;;;5050755;28;20070;-56
2022/02/17 01:23:12;;;;;;;24.77;3.50;;;10.50;99.90;;;;;;5056073;28;20111;-57
2022/02/17 01:25:38;;;;;;;23.45;4.00;;;10.60;99.90;;;;;;5060621;28;20072;-57
2022/02/17 01:28:04;;;;;;;18.63;3.72;;;10.60;99.90;;;;;;5053116;28;20422;-57
2022/02/17 01:30:30;;;;;;;22.05;3.58;;;10.60;99.90;;;;;;5071846;28;20071;-57
2022/02/17 01:32:56;;;;;;;11.93;2.90;;;10.70;99.90;;;;;;5053923;28;20386;-57
2022/02/17 01:35:22;;;;;;;17.30;3.63;;;10.70;99.90;;;;;;5070379;28;20063;-56
2022/02/17 01:37:48;;;;;;;16.98;2.85;;;10.60;99.90;;;;;;5068248;28;20589;-57
2022/02/17 01:40:14;;;;;;;14.45;2.53;;;10.60;99.90;;;;;;5070468;28;20097;-56
2022/02/17 01:42:40;;;;;;;14.52;2.60;;;10.60;99.90;;;;;;5053172;28;20040;-57
2022/02/17 01:45:08;;;;;;;13.30;3.00;;;10.50;98.90;;;;;;5071582;28;20570;-55
2022/02/17 01:47:34;;;;;;;11.98;2.45;;;10.40;98.30;;;;;;5071545;28;20041;-57
2022/02/17 01:50:00;;;;;;;14.95;2.20;;;10.40;97.20;;;;;;5071458;28;20043;-57
2022/02/17 01:52:26;;;;;;;13.88;3.00;;;10.30;96.10;;;;;;5060242;28;20040;-57
2022/02/17 01:54:51;;;;;;;15.20;3.17;;;10.30;96.50;;;;;;5051459;28;20382;-57
2022/02/17 01:57:21;;;;;;;15.82;3.60;;;10.30;95.90;;;;;;5061518;28;20036;-56
2022/02/17 01:59:47;;;;;;;14.23;2.70;;;10.20;95.40;;;;;;5071509;28;20475;-57
2022/02/17 02:02:13;;;;;;;11.93;2.40;;;10.10;95.80;;;;;;5068005;28;20065;-57
2022/02/17 02:04:39;;;;;;;15.95;2.97;;;10.10;95.60;;;;;;5051241;28;20083;-56
2022/02/17 02:07:06;;;;;;;23.42;4.22;;;10.10;95.60;;;;;;5033347;28;20094;-56
2022/02/17 02:09:33;;;;;;;18.95;3.30;;;10.00;96.70;;;;;;5051713;28;20076;-56
2022/02/17 02:11:58;;;;;;;13.55;3.28;;;10.10;96.60;;;;;;5050169;28;20063;-57
2022/02/17 02:14:24;;;;;;;16.00;3.20;;;10.10;96.10;;;;;;5052481;28;20107;-57
2022/02/17 02:16:52;;;;;;;20.60;2.92;;;10.00;96.10;;;;;;5060746;28;20032;-57
2022/02/17 02:19:18;;;;;;;12.30;2.95;;;10.00;96.50;;;;;;5071126;28;20507;-55
2022/02/17 02:21:44;;;;;;;16.52;2.90;;;10.00;95.70;;;;;;5071355;28;20036;-52
2022/02/17 02:24:09;;;;;;;14.75;2.78;;;10.00;95.20;;;;;;5071337;28;20046;-54
2022/02/17 02:26:35;;;;;;;11.70;2.70;;;10.00;95.00;;;;;;5069989;28;20054;-54
2022/02/17 02:29:00;;;;;;;15.80;3.15;;;10.00;94.90;;;;;;5055087;28;20742;-55
2022/02/17 02:31:26;;;;;;;22.25;3.75;;;10.00;94.70;;;;;;5058789;28;20509;-55
2022/02/17 02:33:52;;;;;;;16.67;3.15;;;9.90;94.60;;;;;;5067110;28;20107;-55
2022/02/17 02:36:18;;;;;;;19.10;3.97;;;9.90;94.70;;;;;;5056636;28;20101;-55
2022/02/17 02:38:43;;;;;;;20.08;3.47;;;9.90;94.70;;;;;;5066619;28;20037;-54
2022/02/17 02:41:09;;;;;;;14.35;3.40;;;9.80;94.70;;;;;;5062323;28;20115;-51
2022/02/17 02:43:36;;;;;;;16.13;3.42;;;9.80;94.40;;;;;;5054762;28;20401;-53
2022/02/17 02:46:02;;;;;;;23.17;4.10;;;9.80;93.80;;;;;;5071739;28;20093;-52
2022/02/17 02:48:28;;;;;;;17.20;3.25;;;9.80;94.30;;;;;;5065027;28;20035;-50
2022/02/17 02:50:53;;;;;;;21.23;4.18;;;9.70;94.40;;;;;;5062693;28;20112;-55
2022/02/17 02:53:19;;;;;;;18.58;3.42;;;9.70;94.20;;;;;;5054571;28;20083;-52
2022/02/17 02:55:46;;;;;;;21.33;4.43;;;9.60;94.30;;;;;;5068168;28;20123;-54
2022/02/17 02:58:13;;;;;;;21.83;4.10;;;9.70;93.70;;;;;;5073834;28;20454;-54
2022/02/17 03:00:40;;;;;;;22.95;4.03;;;9.80;93.30;;;;;;5071997;28;20068;-54
2022/02/17 03:03:06;;;;;;;17.77;3.28;;;9.70;94.00;;;;;;5074217;28;20048;-52
2022/02/17 03:05:32;;;;;;;25.27;3.47;;;9.80;93.10;;;;;;5073252;28;20412;-53
2022/02/17 03:07:58;;;;;;;16.45;3.17;;;9.80;93.50;;;;;;5073862;28;20036;-54
2022/02/17 03:10:23;;;;;;;21.52;3.53;;;9.80;93.60;;;;;;5074291;28;20098;-53
2022/02/17 03:12:49;;;;;;;25.42;4.75;;;9.70;93.90;;;;;;5068319;28;20078;-55
2022/02/17 03:15:15;;;;;;;17.33;3.60;;;9.60;94.00;;;;;;5074176;28;20045;-53
2022/02/17 03:17:40;;;;;;;18.83;3.70;;;9.70;94.00;;;;;;5073784;28;20037;-54
2022/02/17 03:20:08;;;;;;;23.42;4.10;;;9.70;94.30;;;;;;5074292;28;20044;-51
2022/02/17 03:22:38;;;;;;;18.92;3.40;;;9.70;94.20;;;;;;5073816;28;20041;-52
2022/02/17 03:25:05;;;;;;;17.98;4.30;;;9.70;94.20;;;;;;5073985;28;20382;-53
2022/02/17 03:27:31;;;;;;;18.27;3.70;;;9.70;94.40;;;;;;5070398;28;20045;-52
2022/02/17 03:29:56;;;;;;;22.40;3.25;;;9.60;94.60;;;;;;5053970;28;20557;-54
2022/02/17 03:32:22;;;;;;;20.13;2.60;;;9.70;94.10;;;;;;5053912;28;20041;-51
2022/02/17 03:34:47;;;;;;;20.52;3.58;;;9.70;94.70;;;;;;5053767;28;20076;-56
2022/02/17 03:37:13;;;;;;;15.85;3.00;;;9.60;94.40;;;;;;5066270;28;20044;-53
2022/02/17 03:39:39;;;;;;;22.15;2.85;;;9.70;93.40;;;;;;5073432;28;20520;-52
2022/02/17 03:42:05;;;;;;;18.70;3.33;;;9.60;93.00;;;;;;5062862;28;20041;-52
2022/02/17 03:44:31;;;;;;;20.50;3.53;;;9.70;93.00;;;;;;5053702;28;20513;-52
2022/02/17 03:46:57;;;;;;;16.98;3.08;;;9.70;93.40;;;;;;5053185;28;20077;-50
2022/02/17 03:49:23;;;;;;;12.85;2.70;;;9.60;93.00;;;;;;5053936;28;20065;-51
2022/02/17 03:51:49;;;;;;;21.10;3.58;;;9.60;92.20;;;;;;5054448;28;20029;-51
2022/02/17 03:54:15;;;;;;;17.27;2.72;;;9.60;92.70;;;;;;5053602;28;20036;-51
2022/02/17 03:56:41;;;;;;;17.90;3.40;;;9.40;93.20;;;;;;5062471;28;20042;-52
2022/02/17 03:59:08;;;;;;;19.30;3.20;;;9.50;92.80;;;;;;5069533;28;20044;-54
2022/02/17 04:01:35;;;;;;;18.75;3.22;;;9.40;93.00;;;;;;5053662;28;20389;-52
2022/02/17 04:04:03;;;;;;;11.13;2.55;;;9.40;92.80;;;;;;5053391;28;20048;-52
2022/02/17 04:06:29;;;;;;;16.77;3.55;;;9.40;92.00;;;;;;5053099;28;20045;-53
2022/02/17 04:08:55;;;;;;;24.98;3.30;;;9.40;92.40;;;;;;5035586;28;20052;-52
2022/02/17 04:11:20;;;;;;;20.70;3.80;;;9.50;92.00;;;;;;5068912;28;20496;-53
2022/02/17 04:13:46;;;;;;;18.95;3.72;;;9.30;92.30;;;;;;5066795;28;20048;-51
2022/02/17 04:16:12;;;;;;;16.58;3.50;;;9.30;92.00;;;;;;5073139;28;20044;-53
2022/02/17 04:18:38;;;;;;;17.70;3.38;;;9.30;91.90;;;;;;5065387;28;20037;-55
2022/02/17 04:21:05;;;;;;;22.05;3.28;;;9.20;92.40;;;;;;5053271;28;20129;-53
2022/02/17 04:23:31;;;;;;;22.33;3.55;;;9.30;92.50;;;;;;5065547;28;20048;-52
2022/02/17 04:25:57;;;;;;;16.33;3.28;;;9.20;92.80;;;;;;5054958;28;20041;-56
2022/02/17 04:28:23;;;;;;;16.55;3.28;;;9.20;93.00;;;;;;5060692;28;20044;-56
2022/02/17 04:30:48;;;;;;;17.13;3.03;;;9.10;93.10;;;;;;5063424;28;20091;-55
2022/02/17 04:33:14;;;;;;;17.95;3.53;;;9.20;92.80;;;;;;5064790;28;20429;-55
2022/02/17 04:35:40;;;;;;;18.85;3.60;;;9.20;92.90;;;;;;5072636;28;20042;-57
2022/02/17 04:38:05;;;;;;;15.38;3.38;;;9.10;92.90;;;;;;5072488;28;20117;-57
2022/02/17 04:43:15;;;;;;;15.25;3.15;;;9.00;93.70;;;;;;5065017;28;20048;-56
2022/02/17 04:45:40;;;;;;;17.83;2.95;;;8.90;94.30;;;;;;5072396;28;20044;-54
2022/02/17 04:48:06;;;;;;;17.08;3.05;;;9.00;94.20;;;;;;5064037;28;20039;-54
2022/02/17 04:50:33;;;;;;;17.50;2.90;;;8.90;93.80;;;;;;5055846;28;20041;-56
2022/02/17 04:52:58;;;;;;;24.88;3.67;;;8.90;93.50;;;;;;5052305;28;20036;-55
2022/02/17 04:55:24;;;;;;;19.15;3.15;;;9.00;93.50;;;;;;5052230;28;20037;-57
2022/02/17 04:57:50;;;;;;;17.50;3.20;;;8.90;93.40;;;;;;5061907;28;20040;-54
2022/02/17 05:00:16;;;;;;;18.58;3.58;;;8.90;92.90;;;;;;5072248;28;20086;-55
2022/02/17 05:02:42;;;;;;;15.43;3.13;;;8.80;92.60;;;;;;5053762;28;20752;-57
2022/02/17 05:05:07;;;;;;;9.93;2.10;;;8.80;91.90;;;;;;5072078;28;20036;-52
2022/02/17 05:07:33;;;;;;;10.95;2.50;;;8.80;91.20;;;;;;5071804;28;20492;-57
2022/02/17 05:09:59;;;;;;;12.63;2.28;;;8.80;91.80;;;;;;5071848;28;20112;-55
2022/02/17 05:12:24;;;;;;;15.38;2.20;;;8.80;91.70;;;;;;5070469;28;20039;-56
2022/02/17 05:14:50;;;;;;;10.57;2.40;;;8.70;91.80;;;;;;5064126;28;20079;-52
2022/02/17 05:17:15;;;;;;;12.15;2.63;;;8.80;91.70;;;;;;5062556;28;20033;-57
2022/02/17 05:19:41;;;;;;;14.80;2.45;;;8.70;91.50;;;;;;5051878;28;20045;-57
2022/02/17 05:22:06;;;;;;;17.17;2.92;;;8.70;91.70;;;;;;5061233;28;20048;-56
2022/02/17 05:24:32;;;;;;;13.77;3.20;;;8.80;91.30;;;;;;5071960;28;20044;-57
2022/02/17 05:26:57;;;;;;;13.80;2.67;;;8.80;91.70;;;;;;5037380;28;20545;-54
2022/02/17 05:29:23;;;;;;;17.02;2.65;;;8.80;91.60;;;;;;5051827;28;20045;-55
2022/02/17 05:31:49;;;;;;;23.05;2.78;;;8.70;91.70;;;;;;5051796;28;20060;-54
2022/02/17 05:34:17;;;;;;;14.30;2.58;;;8.70;91.30;;;;;;5051633;28;20045;-56
2022/02/17 05:36:42;;;;;;;12.55;2.40;;;8.70;91.70;;;;;;5050094;28;20124;-56
2022/02/17 05:39:08;;;;;;;14.80;2.70;;;8.60;92.10;;;;;;5054898;28;20111;-56
2022/02/17 05:41:33;;;;;;;18.90;3.25;;;8.60;92.20;;;;;;5063593;28;20043;-56
2022/02/17 05:43:59;;;;;;;21.92;3.33;;;8.70;91.80;;;;;;5051683;28;20041;-55
2022/02/17 05:46:25;;;;;;;15.77;3.22;;;8.80;92.30;;;;;;5051411;28;20045;-56
2022/02/17 05:48:51;;;;;;;14.70;2.50;;;8.60;92.50;;;;;;5051547;28;20041;-55
2022/02/17 05:51:19;;;;;;;16.38;2.88;;;8.60;92.60;;;;;;5061433;28;20037;-56
2022/02/17 05:53:46;;;;;;;12.75;2.35;;;8.60;92.60;;;;;;5052137;28;20080;-56
2022/02/17 05:56:12;;;;;;;20.25;3.30;;;8.60;92.60;;;;;;5064414;28;20131;-54
2022/02/17 05:58:37;;;;;;;15.85;2.75;;;8.50;93.10;;;;;;5071730;28;20131;-53
2022/02/17 06:01:04;;;;;;;19.02;3.10;;;8.50;92.70;;;;;;5074880;28;20435;-55
2022/02/17 06:03:29;;;;;;;15.80;2.75;;;8.60;93.10;;;;;;5073637;28;20106;-53
2022/02/17 06:05:55;;;;;;;19.63;3.33;;;8.50;93.00;;;;;;5064209;28;20045;-55
2022/02/17 06:08:21;;;;;;;18.48;3.40;;;8.50;93.20;;;;;;5058640;28;20489;-57
2022/02/17 06:10:47;;;;;;;12.55;3.35;;;8.50;93.60;;;;;;5065135;28;20484;-56
2022/02/17 06:13:13;;;;;;;12.88;2.45;;;8.50;93.50;;;;;;5069316;28;20040;-52
2022/02/17 06:15:39;;;;;;;20.83;2.88;;;8.40;93.50;;;;;;5067161;28;20410;-53
2022/02/17 06:18:04;;;;;;;14.18;3.05;;;8.50;93.70;;;;;;5062404;28;20062;-54
2022/02/17 06:20:30;;;;;;;18.58;3.25;;;8.40;94.00;;;;;;5060026;28;20043;-56
2022/02/17 06:22:56;;;;;;;16.38;2.85;;;8.40;93.80;;;;;;5060602;28;20526;-54
2022/02/17 06:25:22;;;;;;;16.95;2.72;;;8.40;94.10;;;;;;5063429;28;20045;-55
2022/02/17 06:27:48;;;;;;;18.52;3.33;;;8.40;94.10;;;;;;5073737;28;20055;-55
2022/02/17 06:30:20;;;;;;;12.93;2.97;;;8.40;94.60;;;;;;5068100;28;20120;-56
2022/02/17 06:32:48;;;;;;;12.80;2.40;;;8.30;94.50;;;;;;5069378;28;20048;-56
2022/02/17 06:35:16;;;;;;;21.40;2.90;;;8.30;94.50;;;;;;5054758;28;20041;-56
2022/02/17 06:37:41;;;;;;;16.05;2.70;;;8.30;94.80;;;;;;5056717;28;20098;-56
2022/02/17 06:40:07;;;;;;;15.68;2.55;;;8.20;95.10;;;;;;5075041;28;20435;-56
2022/02/17 06:42:33;;;;;;;17.85;2.85;;;8.30;95.10;;;;;;5070411;28;20049;-55
2022/02/17 06:44:58;;;;;;;20.85;3.70;;;8.30;95.20;;;;;;5060450;28;20383;-55
2022/02/17 06:47:24;;;;;;;20.30;2.95;;;8.20;95.50;;;;;;5067604;28;20040;-56
2022/02/17 06:49:49;;;;;;;20.48;2.65;;;8.30;95.20;;;;;;5056117;28;20103;-54
2022/02/17 06:52:15;;;;;;;14.48;3.05;;;8.30;95.00;;;;;;5061826;28;20079;-53
2022/02/17 06:54:42;;;;;;;20.85;3.35;;;8.20;95.20;;;;;;5054948;28;20479;-52
2022/02/17 06:57:07;;;;;;;18.77;2.58;;;8.20;95.20;;;;;;5053302;28;20048;-52
2022/02/17 06:59:33;;;;;;;13.93;2.75;;;8.20;95.30;;;;;;5054629;28;20049;-54
2022/02/17 07:01:59;;;;;;;17.92;3.03;;;8.20;95.50;;;;;;5061080;28;20119;-53
2022/02/17 07:04:25;;;;;;;11.15;2.72;;;8.10;95.40;;;;;;5067319;28;20481;-53
2022/02/17 07:06:50;;;;;;;18.00;3.13;;;8.10;95.50;;;;;;5057585;28;20102;-55
2022/02/17 07:09:16;;;;;;;16.67;3.10;;;8.10;95.70;;;;;;5059307;28;20032;-53
2022/02/17 07:11:41;;;;;;;26.45;3.40;;;8.10;95.80;;;;;;5056084;28;20504;-56
2022/02/17 07:14:09;;;;;;;20.17;2.58;;;8.10;95.80;;;;;;5060505;28;20071;-56
2022/02/17 07:16:35;;;;;;;15.13;2.90;;;8.00;96.20;;;;;;5063567;28;20115;-54
2022/02/17 07:19:01;;;;;;;19.17;3.15;;;8.10;96.20;;;;;;5073176;28;20040;-54
2022/02/17 07:21:26;;;;;;;25.35;4.05;;;8.00;96.50;;;;;;5070522;28;20048;-53
2022/02/17 07:23:52;;;;;;;13.50;2.65;;;8.00;96.40;;;;;;5056768;28;20056;-55
2022/02/17 07:26:18;;;;;;;15.05;2.97;;;8.00;95.80;;;;;;5071523;28;20041;-55
2022/02/17 07:28:44;;;;;;;20.08;3.08;;;8.00;95.90;;;;;;5058353;28;20103;-56
2022/02/17 07:31:12;;;;;;;16.25;3.83;;;8.00;96.10;;;;;;5054512;28;20048;-56
2022/02/17 07:33:38;;;;;;;16.60;3.22;;;7.90;96.00;;;;;;5060366;28;20128;-56
2022/02/17 07:36:06;;;;;;;25.13;3.25;;;7.90;96.30;;;;;;5059092;28;20123;-56
2022/02/17 07:38:31;;;;;;;17.45;3.08;;;7.90;95.90;;;;;;5059108;28;20432;-55
2022/02/17 07:40:57;;;;;;;17.85;3.20;;;8.00;95.30;;;;;;5066858;28;20089;-54
2022/02/17 07:43:23;;;;;;;19.48;3.85;;;8.00;95.20;;;;;;5058734;28;20040;-54
2022/02/17 07:45:50;;;;;;;21.38;3.38;;;8.00;95.40;;;;;;5056921;28;20029;-52
2022/02/17 07:48:15;;;;;;;14.35;3.45;;;8.00;95.40;;;;;;5071783;28;20036;-54
2022/02/17 07:50:41;;;;;;;15.77;3.03;;;8.00;95.30;;;;;;5051612;28;20041;-55
2022/02/17 07:53:07;;;;;;;17.23;3.17;;;8.00;95.10;;;;;;5056661;28;20035;-52
2022/02/17 07:55:34;;;;;;;14.10;2.28;;;8.10;95.10;;;;;;5052169;28;20717;-54
2022/02/17 07:58:02;;;;;;;12.15;2.47;;;8.10;94.60;;;;;;5053426;28;20033;-56
2022/02/17 08:00:28;;;;;;;27.63;3.30;;;8.10;94.60;;;;;;5054191;28;20033;-55
2022/02/17 08:02:54;;;;;;;17.02;4.30;;;8.00;95.10;;;;;;5052739;28;20049;-53
2022/02/17 08:05:19;;;;;;;12.65;2.65;;;8.10;94.70;;;;;;5052684;28;20091;-55
2022/02/17 08:07:45;;;;;;;16.83;2.67;;;8.10;95.00;;;;;;5053346;28;20040;-54
2022/02/17 08:10:10;;;;;;;17.40;3.28;;;8.10;94.80;;;;;;5056957;28;20079;-55
2022/02/17 08:12:41;;;;;;;19.15;2.88;;;8.10;95.40;;;;;;5052622;28;20067;-56
2022/02/17 08:15:07;;;;;;;15.95;2.25;;;8.10;95.10;;;;;;5055574;28;20032;-54
2022/02/17 08:17:32;;;;;;;20.38;3.28;;;8.10;95.30;;;;;;5054739;28;20045;-56
2022/02/17 08:19:58;;;;;;;15.32;3.50;;;8.10;95.80;;;;;;5056022;28;20097;-56
2022/02/17 08:22:23;;;;;;;15.32;2.47;;;8.10;95.90;;;;;;5054135;28;20040;-56
2022/02/17 08:24:49;;;;;;;17.67;3.22;;;8.10;95.70;;;;;;5054730;28;20033;-55
2022/02/17 08:27:15;;;;;;;17.98;3.90;;;8.10;96.30;;;;;;5052199;28;20040;-56
2022/02/17 08:29:42;;;;;;;18.48;4.38;;;8.10;96.40;;;;;;5057732;28;20043;-55
2022/02/17 08:32:08;;;;;;;12.20;2.55;;;8.10;95.70;;;;;;5051718;28;20040;-55
2022/02/17 08:34:34;;;;;;;14.55;2.97;;;8.10;95.90;;;;;;5054747;28;20048;-54
2022/02/17 08:37:00;;;;;;;19.20;3.55;;;8.10;95.90;;;;;;5053944;28;20041;-55
2022/02/17 08:39:25;;;;;;;21.60;3.35;;;8.20;96.10;;;;;;5056187;28;20041;-56
2022/02/17 08:41:51;;;;;;;19.30;3.78;;;8.20;95.90;;;;;;5053385;28;20044;-53
2022/02/17 08:44:16;;;;;;;21.65;4.00;;;8.10;96.60;;;;;;5052904;28;20035;-55
2022/02/17 08:46:42;;;;;;;15.25;3.17;;;8.10;96.80;;;;;;5051020;28;20587;-56
2022/02/17 08:49:08;;;;;;;17.77;3.25;;;8.10;96.70;;;;;;5052028;28;20481;-57
2022/02/17 08:51:35;;;;;;;19.58;3.10;;;8.20;96.90;;;;;;5026143;28;20079;-55
2022/02/17 08:54:01;;;;;;;17.77;2.78;;;8.20;96.70;;;;;;5051044;28;20527;-56
2022/02/17 08:56:27;;;;;;;15.70;2.97;;;8.20;96.70;;;;;;5051220;28;20037;-56
2022/02/17 08:58:53;;;;;;;18.30;3.10;;;8.30;95.60;;;;;;5049898;28;20090;-54
2022/02/17 09:01:19;;;;;;;20.42;4.32;;;8.30;95.80;;;;;;5035503;28;20037;-55
2022/02/17 09:03:44;;;;;;;19.88;4.00;;;8.30;95.20;;;;;;5053893;28;20524;-56
2022/02/17 09:06:10;;;;;;;18.85;3.72;;;8.40;95.40;;;;;;5052451;28;20052;-56
2022/02/17 09:08:36;;;;;;;17.27;2.88;;;8.40;95.90;;;;;;5052889;28;20048;-56
2022/02/17 09:11:04;;;;;;;19.50;3.50;;;8.40;95.50;;;;;;5056153;28;20033;-55
2022/02/17 09:13:29;;;;;;;21.48;3.58;;;8.30;95.10;;;;;;5052329;28;20111;-57
2022/02/17 09:15:56;;;;;;;14.65;2.58;;;8.30;95.70;;;;;;5052744;28;20115;-53
2022/02/17 09:18:21;;;;;;;19.73;3.35;;;8.30;95.40;;;;;;5056697;28;20119;-56
2022/02/17 09:20:47;;;;;;;11.88;3.05;;;8.30;95.90;;;;;;5056124;28;20119;-56
2022/02/17 09:23:12;;;;;;;15.40;3.20;;;8.30;95.50;;;;;;5052808;28;20053;-56
2022/02/17 09:25:38;;;;;;;18.23;2.70;;;8.30;95.50;;;;;;5054354;28;20033;-56
2022/02/17 09:28:05;;;;;;;24.20;3.38;;;8.30;95.50;;;;;;5055588;28;20025;-55
2022/02/17 09:30:31;;;;;;;15.18;2.70;;;8.40;95.40;;;;;;5061513;28;20032;-56
2022/02/17 09:32:57;;;;;;;12.88;2.90;;;8.50;94.80;;;;;;5071986;28;20115;-56
2022/02/17 09:35:22;;;;;;;15.50;2.72;;;8.50;94.80;;;;;;5057990;28;20033;-56
2022/02/17 09:37:48;;;;;;;13.02;2.58;;;8.50;95.00;;;;;;5056159;28;20064;-56
2022/02/17 09:40:13;;;;;;;16.00;2.85;;;8.60;94.50;;;;;;5052130;28;20090;-55
2022/02/17 09:42:41;;;;;;;14.95;3.25;;;8.70;93.70;;;;;;5051751;28;20039;-55
2022/02/17 09:45:09;;;;;;;14.52;3.28;;;8.70;92.80;;;;;;5036019;28;20455;-54
2022/02/17 09:47:38;;;;;;;14.95;3.03;;;8.70;93.40;;;;;;5056645;28;20045;-54
2022/02/17 09:50:13;;;;;;;21.23;3.10;;;8.80;93.10;;;;;;5052605;28;20059;-55
2022/02/17 09:52:38;;;;;;;14.57;3.08;;;8.80;94.00;;;;;;5058228;28;20042;-54
2022/02/17 09:55:11;;;;;;;12.30;3.00;;;8.90;93.90;;;;;;5053393;28;20398;-51
2022/02/17 09:57:38;;;;;;;11.07;2.35;;;8.90;92.90;;;;;;5051387;28;20044;-52
2022/02/17 10:00:06;;;;;;;14.45;2.60;;;8.90;92.30;;;;;;5051579;28;20063;-52
2022/02/17 10:02:32;;;;;;;11.43;2.67;;;8.90;91.80;;;;;;5050893;28;20531;-56
2022/02/17 10:04:58;;;;;;;19.85;3.25;;;8.90;92.40;;;;;;5050598;28;20037;-55
2022/02/17 10:07:36;;;;;;;15.50;2.63;;;8.90;91.30;;;;;;5053655;28;20032;-56
2022/02/17 10:10:06;;;;;;;13.38;2.13;;;8.90;92.10;;;;;;5050798;28;20122;-56
2022/02/17 10:12:55;;;;;;;14.98;2.65;;;9.00;91.40;;;;;;5053301;28;20040;-56
2022/02/17 10:15:39;;;;;;;15.90;2.47;;;9.00;90.60;;;;;;5057858;28;20213;-54
2022/02/17 10:18:14;;;;;;;13.85;2.55;;;9.00;91.30;;;;;;5061683;28;20069;-56
2022/02/17 10:21:03;;;;;;;14.23;2.60;;;9.10;90.90;;;;;;5054292;28;20044;-55
2022/02/17 10:23:31;;;;;;;16.90;2.97;;;9.00;90.60;;;;;;5060922;28;20041;-56
2022/02/17 10:26:03;;;;;;;11.88;2.53;;;9.00;91.20;;;;;;5053528;28;20120;-55
2022/02/17 10:28:36;;;;;;;17.35;3.20;;;9.00;91.00;;;;;;5056326;28;20477;-57
2022/02/17 10:31:03;;;;;;;18.05;2.35;;;9.10;91.40;;;;;;5056653;28;20126;-54
2022/02/17 10:33:45;;;;;;;10.80;2.97;;;9.20;91.20;;;;;;5063089;28;20033;-56
2022/02/17 10:36:13;;;;;;;15.02;2.65;;;9.20;89.40;;;;;;5063071;28;20041;-56
2022/02/17 10:38:39;;;;;;;16.83;2.67;;;9.20;90.40;;;;;;5059509;28;20119;-52
2022/02/17 10:41:05;;;;;;;12.88;2.67;;;9.20;90.50;;;;;;5065980;28;20037;-56
2022/02/17 10:43:32;;;;;;;15.80;2.50;;;9.30;91.10;;;;;;5066720;28;20041;-55
2022/02/17 10:46:10;;;;;;;13.85;2.30;;;9.40;90.80;;;;;;5061964;28;20036;-54
2022/02/17 10:48:37;;;;;;;14.40;2.70;;;9.40;90.70;;;;;;5066187;28;20082;-55
2022/02/17 10:51:10;;;;;;;9.20;2.00;;;9.40;90.50;;;;;;5064865;28;20117;-53
2022/02/17 10:53:40;;;;;;;11.63;2.83;;;9.40;90.40;;;;;;5074627;28;20036;-54
2022/02/17 10:56:12;;;;;;;10.02;2.10;;;9.40;88.20;;;;;;5058504;28;20493;-54
2022/02/17 10:58:46;;;;;;;16.00;2.50;;;9.40;87.50;;;;;;5064952;28;20141;-56
2022/02/17 11:01:12;;;;;;;14.02;2.08;;;9.40;89.20;;;;;;5061133;28;20314;-55
2022/02/17 11:03:39;;;;;;;18.63;2.80;;;9.30;90.30;;;;;;5065282;28;20051;-55
2022/02/17 11:06:05;;;;;;;12.13;2.00;;;9.30;87.30;;;;;;5054748;28;20052;-53
2022/02/17 11:08:32;;;;;;;14.18;2.40;;;9.30;88.60;;;;;;5062179;28;20501;-55
2022/02/17 11:10:58;;;;;;;11.38;2.30;;;9.40;90.00;;;;;;5056103;28;20040;-56
2022/02/17 11:13:25;;;;;;;10.38;2.13;;;9.40;88.90;;;;;;5062314;28;20465;-54
2022/02/17 11:15:53;;;;;;;12.98;2.13;;;9.40;86.80;;;;;;5058019;28;20070;-56
2022/02/17 11:18:20;;;;;;;16.65;2.40;;;9.40;85.80;;;;;;5054900;28;20483;-55
2022/02/17 11:20:49;;;;;;;15.88;3.67;;;9.40;87.20;;;;;;5061079;28;20468;-54
2022/02/17 11:23:19;;;;;;;12.45;2.42;;;9.40;87.80;;;;;;5061227;28;20040;-53
2022/02/17 11:25:47;;;;;;;17.40;3.10;;;9.40;85.20;;;;;;5060325;28;20036;-55
2022/02/17 11:28:15;;;;;;;14.55;3.03;;;9.40;86.10;;;;;;5058100;28;20066;-54
2022/02/17 11:30:43;;;;;;;14.35;2.40;;;9.40;86.00;;;;;;5036571;28;20037;-54
2022/02/17 11:33:24;;;;;;;11.13;2.47;;;9.40;85.00;;;;;;5063705;28;20079;-55
2022/02/17 11:35:53;;;;;;;8.60;2.00;;;9.50;85.20;;;;;;5054257;28;20112;-54
2022/02/17 11:38:52;;;;;;;15.30;2.15;;;9.50;84.70;;;;;;5067444;28;20028;-54
2022/02/17 11:41:19;;;;;;;9.55;2.28;;;9.50;84.60;;;;;;5050252;28;20616;-53
2022/02/17 11:43:47;;;;;;;12.30;2.20;;;9.60;84.10;;;;;;5059215;28;20045;-53
2022/02/17 11:46:15;;;;;;;12.13;2.10;;;9.60;85.10;;;;;;5058512;28;20040;-56
2022/02/17 11:48:45;;;;;;;11.85;2.28;;;9.60;83.60;;;;;;5055158;28;20608;-54
2022/02/17 11:51:21;;;;;;;14.45;2.10;;;9.60;82.30;;;;;;5056965;28;20044;-54
2022/02/17 11:53:50;;;;;;;16.20;2.53;;;9.60;83.10;;;;;;5064848;28;20033;-53
2022/02/17 11:56:16;;;;;;;10.73;2.30;;;9.60;84.30;;;;;;5053903;28;20505;-52
2022/02/17 11:58:53;;;;;;;13.02;1.95;;;9.50;84.60;;;;;;5050677;28;20138;-54
2022/02/17 12:01:21;;;;;;;11.65;2.22;;;9.50;83.80;;;;;;5053382;28;20037;-56
2022/02/17 12:03:58;;;;;;;10.85;2.08;;;9.60;85.20;;;;;;5053938;28;20524;-52
2022/02/17 12:06:32;;;;;;;12.38;1.88;;;9.60;85.30;;;;;;5038096;28;20115;-54
2022/02/17 12:08:58;;;;;;;16.90;2.75;;;9.60;84.90;;;;;;5051877;28;20041;-51
2022/02/17 12:11:36;;;;;;;12.65;2.10;;;9.60;84.90;;;;;;5055214;28;20028;-56
2022/02/17 12:14:07;;;;;;;11.82;2.20;;;9.60;84.90;;;;;;5052424;28;20389;-55
2022/02/17 12:16:40;;;;;;;17.67;2.15;;;9.60;83.40;;;;;;5053684;28;20424;-56
2022/02/17 12:19:13;;;;;;;9.88;2.45;;;9.60;82.90;;;;;;5054500;28;20045;-53
2022/02/17 12:21:40;;;;;;;11.45;1.95;;;9.40;82.70;;;;;;5053154;28;20519;-56
2022/02/17 12:24:07;;;;;;;11.60;2.15;;;9.30;82.90;;;;;;5052943;28;20041;-53
2022/02/17 12:26:41;;;;;;;9.43;2.72;;;9.30;83.10;;;;;;5060691;28;20128;-53
2022/02/17 12:29:29;;;;;;;12.65;2.08;;;9.30;81.90;;;;;;5044007;28;20175;-52
2022/02/17 12:31:56;;;;;;;9.32;2.40;;;9.40;84.20;;;;;;5056740;28;20547;-54
2022/02/17 12:34:23;;;;;;;9.23;2.30;;;9.40;83.10;;;;;;5055828;28;20048;-56
2022/02/17 12:36:48;;;;;;;8.77;1.95;;;9.40;83.20;;;;;;5057487;28;20343;-55
2022/02/17 12:39:15;;;;;;;9.98;1.73;;;9.40;83.50;;;;;;5061404;28;20074;-56
2022/02/17 12:42:03;;;;;;;11.02;2.55;;;9.50;81.70;;;;;;5053294;28;20033;-56
2022/02/17 12:44:35;;;;;;;10.88;1.85;;;9.50;81.70;;;;;;5056531;28;20044;-55
2022/02/17 12:47:01;;;;;;;;;;;9.50;82.30;;;;;;5058213;28;20308;-56